»·PEaware :: N105MS KSNA-KCRQ

N105MS :: KSNA-KCRQ

FLIGHT INFORMATION

Flight Status: Arrived
Operator: Privately registered:
United States
More flights under this callsign
Pilot: My Sim Academy (22952)
Aircraft: CESSNA 172 SKYHAWK
(C172)
More flights by this aircraft type
Origin: KSNA John Wayne-Orange Co
United States
Destination: KCRQ McClellan-Palomar
United States
More flights between these airports :: More routes between these airports
Route: V23 OCN
File this flight plan on PilotEdge
Remarks: +CW / I-2
Altitude:
(Current/Filed)
5,000ft
Speed:
(Current/Filed)
110kts
Departed: 11-Feb-20 11:45 AM
Arrived: 11-Feb-20 12:50 PM
Distance/Time
Traveled:
44nm/1:05
Distance/Time
To Go:
Arrived

Flight Plot

Page will automatically refresh every two minutes.


Map Options




Map Legend


Flown Route
Filed Route
Departure Airport
Arrival Airport
Navaid (VOR, NDB)
Fix

Horizontal Profiles

Position Reports

Time Latitude Longitude Heading Altitude Ground
Speed
11-Feb-20 11:09 33.672329 -117.867325 242 21ft 0kts
11-Feb-20 11:10 33.672329 -117.867325 242 21ft 0kts
11-Feb-20 11:12 33.672329 -117.867325 242 21ft 0kts
11-Feb-20 11:12 33.672329 -117.867325 242 21ft 0kts
11-Feb-20 11:13 33.672329 -117.867325 242 21ft 0kts
11-Feb-20 11:14 33.672329 -117.867325 242 21ft 0kts
11-Feb-20 11:15 33.672329 -117.867325 242 21ft 0kts
11-Feb-20 11:16 33.672329 -117.867325 242 21ft 0kts
11-Feb-20 11:17 33.672329 -117.867325 242 21ft 0kts
11-Feb-20 11:18 33.672329 -117.867325 242 21ft 0kts
11-Feb-20 11:19 33.672329 -117.867325 242 21ft 0kts
11-Feb-20 11:20 33.672329 -117.867325 242 21ft 0kts
11-Feb-20 11:21 33.672329 -117.867325 242 21ft 0kts
11-Feb-20 11:22 33.672329 -117.867325 242 21ft 0kts
11-Feb-20 11:23 33.672329 -117.867325 242 21ft 0kts
11-Feb-20 11:24 33.672329 -117.867325 242 21ft 0kts
11-Feb-20 11:25 33.672323 -117.867330 255 21ft 0kts
11-Feb-20 11:26 33.672329 -117.867400 292 21ft 0kts
11-Feb-20 11:27 33.672333 -117.867406 293 21ft 0kts
11-Feb-20 11:28 33.672333 -117.867406 293 21ft 0kts
11-Feb-20 11:29 33.672333 -117.867406 293 21ft 0kts
11-Feb-20 11:30 33.672333 -117.867406 293 21ft 0kts
11-Feb-20 11:31 33.672333 -117.867406 293 21ft 0kts
11-Feb-20 11:32 33.672336 -117.867414 289 21ft 1kts
11-Feb-20 11:33 33.672952 -117.867458 51 22ft 2kts
11-Feb-20 11:34 33.673720 -117.867154 307 23ft 5kts
11-Feb-20 11:35 33.675270 -117.866344 27 24ft 4kts
11-Feb-20 11:36 33.676913 -117.865304 26 25ft 8kts
11-Feb-20 11:37 33.678709 -117.864164 27 27ft 7kts
11-Feb-20 11:38 33.679892 -117.863513 325 28ft 2kts
11-Feb-20 11:39 33.679961 -117.863620 298 29ft 0kts
11-Feb-20 11:40 33.679961 -117.863620 298 29ft 0kts
11-Feb-20 11:41 33.679961 -117.863620 298 29ft 0kts
11-Feb-20 11:42 33.679961 -117.863620 298 29ft 0kts
11-Feb-20 11:43 33.679348 -117.864736 209 29ft 36kts
11-Feb-20 11:44 33.658160 -117.874922 190 435ft 96kts
11-Feb-20 11:45 33.630127 -117.877448 191 981ft 105kts
11-Feb-20 11:46 33.601179 -117.880234 184 1567ft 107kts
11-Feb-20 11:47 33.572243 -117.879725 190 2109ft 104kts
11-Feb-20 11:48 33.543274 -117.880212 160 2598ft 108kts
11-Feb-20 11:49 33.528130 -117.847778 114 3066ft 116kts
11-Feb-20 11:50 33.517814 -117.813056 113 3631ft 109kts
11-Feb-20 11:51 33.507565 -117.778662 112 4074ft 107kts
11-Feb-20 11:52 33.497478 -117.745883 113 4525ft 104kts
11-Feb-20 11:53 33.487277 -117.713796 114 4942ft 106kts
11-Feb-20 11:54 33.472937 -117.682863 134 4994ft 107kts
11-Feb-20 11:55 33.452017 -117.657408 134 4969ft 108kts
11-Feb-20 11:56 33.430516 -117.632562 141 4964ft 107kts
11-Feb-20 11:57 33.408446 -117.608871 141 4970ft 106kts
11-Feb-20 11:58 33.387021 -117.584267 134 4964ft 107kts
11-Feb-20 11:59 33.365907 -117.559396 138 4975ft 105kts
11-Feb-20 12:00 33.344882 -117.534394 132 4955ft 106kts
11-Feb-20 12:01 33.324409 -117.508594 134 4930ft 108kts
11-Feb-20 12:02 33.303481 -117.483099 139 4937ft 107kts
11-Feb-20 12:03 33.285867 -117.455555 113 4950ft 107kts
11-Feb-20 12:04 33.261752 -117.435903 154 4975ft 104kts
11-Feb-20 12:05 33.239062 -117.413590 116 4905ft 111kts
11-Feb-20 12:06 33.238681 -117.378593 89 5009ft 107kts
11-Feb-20 12:07 33.233111 -117.344105 97 5036ft 106kts
11-Feb-20 12:08 33.227842 -117.309857 95 5068ft 107kts
11-Feb-20 12:09 33.223479 -117.274894 115 5044ft 108kts
11-Feb-20 12:10 33.220316 -117.239511 97 5077ft 106kts
11-Feb-20 12:11 33.217580 -117.203364 98 4952ft 114kts
11-Feb-20 12:12 33.212174 -117.165886 95 4572ft 117kts
11-Feb-20 12:13 33.210059 -117.127618 109 4268ft 114kts
11-Feb-20 12:14 33.199636 -117.092300 113 3975ft 108kts
11-Feb-20 12:15 33.189999 -117.059487 113 3984ft 98kts
11-Feb-20 12:16 33.171602 -117.050070 231 3649ft 99kts
11-Feb-20 12:17 33.155985 -117.074696 245 3623ft 85kts
11-Feb-20 12:18 33.156092 -117.102172 260 3508ft 79kts
11-Feb-20 12:19 33.152784 -117.128610 256 2975ft 80kts
11-Feb-20 12:20 33.148791 -117.154572 254 2467ft 78kts
11-Feb-20 12:21 33.144840 -117.179268 251 2062ft 76kts
11-Feb-20 12:22 33.140638 -117.204332 258 1595ft 79kts
11-Feb-20 12:23 33.136603 -117.229620 260 1130ft 78kts
11-Feb-20 12:24 33.132558 -117.254262 258 728ft 73kts
11-Feb-20 12:25 33.128565 -117.278654 256 921ft 75kts
11-Feb-20 12:26 33.124556 -117.303752 259 1421ft 78kts
11-Feb-20 12:27 33.126459 -117.327680 327 1912ft 85kts
11-Feb-20 12:28 33.150898 -117.332146 344 2366ft 86kts
11-Feb-20 12:29 33.173035 -117.335691 343 2940ft 86kts
11-Feb-20 12:30 33.189304 -117.318907 75 3582ft 99kts
11-Feb-20 12:31 33.197697 -117.286802 76 4024ft 110kts
11-Feb-20 12:32 33.206309 -117.252672 76 3994ft 107kts
11-Feb-20 12:33 33.214494 -117.218543 77 3986ft 104kts
11-Feb-20 12:34 33.222745 -117.184517 77 3976ft 106kts
11-Feb-20 12:35 33.230949 -117.151254 75 3964ft 101kts
11-Feb-20 12:36 33.226721 -117.119345 117 3975ft 100kts
11-Feb-20 12:37 33.216013 -117.088309 116 3991ft 102kts
11-Feb-20 12:38 33.204670 -117.056769 121 4001ft 103kts
11-Feb-20 12:39 33.185993 -117.039750 224 3879ft 102kts
11-Feb-20 12:40 33.168229 -117.065003 228 3592ft 94kts
11-Feb-20 12:41 33.159683 -117.091092 255 3606ft 82kts
11-Feb-20 12:42 33.155120 -117.121795 257 3268ft 104kts
11-Feb-20 12:43 33.148616 -117.155542 262 2557ft 84kts
11-Feb-20 12:44 33.145450 -117.178684 270 2043ft 64kts
11-Feb-20 12:45 33.141737 -117.199984 262 1715ft 75kts
11-Feb-20 12:46 33.137820 -117.221723 254 1264ft 61kts
11-Feb-20 12:47 33.134377 -117.242820 260 923ft 71kts
11-Feb-20 12:48 33.130681 -117.265128 258 487ft 66kts
11-Feb-20 12:49 33.128463 -117.278801 258 313ft 14kts
11-Feb-20 12:50 33.128948 -117.280161 301 313ft 0kts

Navigation Log

Ident Type
Flight plan parsing failed, navigation log unavailable